sensor_id;sensor_type;location;lat;lon;timestamp;pressure;altitude;pressure_sealevel;temperature;humidity
75891;BME280;64571;47.512;19.054;2024-02-21T00:01:54;101246.53;;;8.55;80.54
75891;BME280;64571;47.512;19.054;2024-02-21T00:04:56;101249.31;;;8.55;80.48
75891;BME280;64571;47.512;19.054;2024-02-21T00:07:59;101256.78;;;8.55;80.47
75891;BME280;64571;47.512;19.054;2024-02-21T00:11:03;101256.78;;;8.55;80.48
75891;BME280;64571;47.512;19.054;2024-02-21T00:14:05;101255.41;;;8.52;80.09
75891;BME280;64571;47.512;19.054;2024-02-21T00:17:08;101254.81;;;8.50;79.86
75891;BME280;64571;47.512;19.054;2024-02-21T00:20:11;101252.34;;;8.54;79.96
75891;BME280;64571;47.512;19.054;2024-02-21T00:23:13;101244.38;;;8.57;80.14
75891;BME280;64571;47.512;19.054;2024-02-21T00:26:16;101247.28;;;8.46;80.64
75891;BME280;64571;47.512;19.054;2024-02-21T00:29:19;101245.72;;;8.55;80.55
75891;BME280;64571;47.512;19.054;2024-02-21T00:32:21;101224.31;;;8.45;80.57
75891;BME280;64571;47.512;19.054;2024-02-21T00:35:24;101222.94;;;8.48;80.71
75891;BME280;64571;47.512;19.054;2024-02-21T00:38:26;101225.19;;;8.51;80.52
75891;BME280;64571;47.512;19.054;2024-02-21T00:41:29;101228.72;;;8.46;80.40
75891;BME280;64571;47.512;19.054;2024-02-21T00:44:32;101205.59;;;8.30;80.45
75891;BME280;64571;47.512;19.054;2024-02-21T00:47:34;101218.44;;;8.42;80.25
75891;BME280;64571;47.512;19.054;2024-02-21T00:50:37;101219.81;;;8.39;80.05
75891;BME280;64571;47.512;19.054;2024-02-21T00:53:40;101212.28;;;8.34;79.85
75891;BME280;64571;47.512;19.054;2024-02-21T00:56:43;101222.53;;;8.34;78.94
75891;BME280;64571;47.512;19.054;2024-02-21T00:59:45;101216.72;;;8.35;78.52
75891;BME280;64571;47.512;19.054;2024-02-21T01:02:48;101224.53;;;8.39;78.29
75891;BME280;64571;47.512;19.054;2024-02-21T01:05:55;101213.50;;;8.44;77.55
75891;BME280;64571;47.512;19.054;2024-02-21T01:08:57;101195.34;;;8.31;77.68
75891;BME280;64571;47.512;19.054;2024-02-21T01:12:00;101221.75;;;8.39;76.75
75891;BME280;64571;47.512;19.054;2024-02-21T01:15:03;101223.69;;;8.38;76.76
75891;BME280;64571;47.512;19.054;2024-02-21T01:18:05;101216.06;;;8.28;76.49
75891;BME280;64571;47.512;19.054;2024-02-21T01:21:09;101226.13;;;8.34;76.55
75891;BME280;64571;47.512;19.054;2024-02-21T01:24:12;101225.00;;;8.35;76.46
75891;BME280;64571;47.512;19.054;2024-02-21T01:27:16;101204.41;;;8.21;76.38
75891;BME280;64571;47.512;19.054;2024-02-21T01:30:19;101216.06;;;8.28;76.44
75891;BME280;64571;47.512;19.054;2024-02-21T01:33:21;101200.44;;;8.12;76.67
75891;BME280;64571;47.512;19.054;2024-02-21T01:36:24;101207.69;;;8.18;76.92
75891;BME280;64571;47.512;19.054;2024-02-21T01:39:26;101213.03;;;8.25;76.98
75891;BME280;64571;47.512;19.054;2024-02-21T01:42:29;101210.53;;;8.28;76.91
75891;BME280;64571;47.512;19.054;2024-02-21T01:45:31;101185.81;;;8.17;77.31
75891;BME280;64571;47.512;19.054;2024-02-21T01:48:34;101206.66;;;8.24;77.66
75891;BME280;64571;47.512;19.054;2024-02-21T01:51:38;101185.13;;;8.04;77.94
75891;BME280;64571;47.512;19.054;2024-02-21T01:54:42;101204.88;;;8.13;78.28
75891;BME280;64571;47.512;19.054;2024-02-21T01:57:44;101202.06;;;8.08;78.78
75891;BME280;64571;47.512;19.054;2024-02-21T02:00:48;101201.53;;;8.11;79.10
75891;BME280;64571;47.512;19.054;2024-02-21T02:03:51;101195.41;;;8.09;79.17
75891;BME280;64571;47.512;19.054;2024-02-21T02:06:55;101198.91;;;7.99;79.41
75891;BME280;64571;47.512;19.054;2024-02-21T02:09:58;101190.34;;;8.01;79.38
75891;BME280;64571;47.512;19.054;2024-02-21T02:13:01;101179.69;;;7.87;79.81
75891;BME280;64571;47.512;19.054;2024-02-21T02:16:04;101180.00;;;7.91;79.76
75891;BME280;64571;47.512;19.054;2024-02-21T02:19:06;101171.28;;;7.77;80.26
75891;BME280;64571;47.512;19.054;2024-02-21T02:22:14;101166.81;;;7.71;80.45
75891;BME280;64571;47.512;19.054;2024-02-21T02:25:19;101198.19;;;7.82;80.86
75891;BME280;64571;47.512;19.054;2024-02-21T02:28:22;101173.44;;;7.70;80.84
75891;BME280;64571;47.512;19.054;2024-02-21T02:31:24;101185.44;;;7.81;81.45
75891;BME280;64571;47.512;19.054;2024-02-21T02:34:27;101186.53;;;7.80;81.22
75891;BME280;64571;47.512;19.054;2024-02-21T02:37:29;101191.16;;;7.74;81.69
75891;BME280;64571;47.512;19.054;2024-02-21T02:40:36;101188.88;;;7.66;81.89
75891;BME280;64571;47.512;19.054;2024-02-21T02:43:38;101172.22;;;7.61;82.08
75891;BME280;64571;47.512;19.054;2024-02-21T02:46:41;101166.06;;;7.54;82.07
75891;BME280;64571;47.512;19.054;2024-02-21T02:49:43;101178.97;;;7.70;81.86
75891;BME280;64571;47.512;19.054;2024-02-21T02:52:47;101176.84;;;7.55;82.05
75891;BME280;64571;47.512;19.054;2024-02-21T02:55:49;101179.09;;;7.58;82.26
75891;BME280;64571;47.512;19.054;2024-02-21T02:58:52;101175.69;;;7.51;82.46
75891;BME280;64571;47.512;19.054;2024-02-21T03:01:54;101179.22;;;7.47;82.40
75891;BME280;64571;47.512;19.054;2024-02-21T03:04:57;101179.87;;;7.54;82.20
75891;BME280;64571;47.512;19.054;2024-02-21T03:08:00;101163.69;;;7.41;81.62
75891;BME280;64571;47.512;19.054;2024-02-21T03:11:02;101167.09;;;7.48;81.51
75891;BME280;64571;47.512;19.054;2024-02-21T03:14:05;101188.22;;;7.59;81.21
75891;BME280;64571;47.512;19.054;2024-02-21T03:17:08;101188.88;;;7.66;80.87
75891;BME280;64571;47.512;19.054;2024-02-21T03:20:11;101193.88;;;7.69;80.71
75891;BME280;64571;47.512;19.054;2024-02-21T03:23:15;101189.97;;;7.65;80.30
75891;BME280;64571;47.512;19.054;2024-02-21T03:26:17;101194.19;;;7.73;80.09
75891;BME280;64571;47.512;19.054;2024-02-21T03:29:20;101196.59;;;7.64;80.01
75891;BME280;64571;47.512;19.054;2024-02-21T03:32:22;101206.87;;;7.69;79.81
75891;BME280;64571;47.512;19.054;2024-02-21T03:35:25;101186.06;;;7.61;79.29
75891;BME280;64571;47.512;19.054;2024-02-21T03:38:29;101198.78;;;7.62;78.97
75891;BME280;64571;47.512;19.054;2024-02-21T03:41:31;101180.38;;;7.51;79.18
75891;BME280;64571;47.512;19.054;2024-02-21T03:44:34;101203.72;;;7.60;79.31
75891;BME280;64571;47.512;19.054;2024-02-21T03:47:37;101194.53;;;7.54;79.71
75891;BME280;64571;47.512;19.054;2024-02-21T03:50:39;101174.75;;;7.41;80.29
75891;BME280;64571;47.512;19.054;2024-02-21T03:53:42;101203.06;;;7.48;80.56
75891;BME280;64571;47.512;19.054;2024-02-21T03:56:44;101179.63;;;7.33;80.39
75891;BME280;64571;47.512;19.054;2024-02-21T03:59:50;101204.06;;;7.42;80.69
75891;BME280;64571;47.512;19.054;2024-02-21T04:02:54;101198.91;;;7.28;81.45
75891;BME280;64571;47.512;19.054;2024-02-21T04:05:58;101200.78;;;7.23;81.91
75891;BME280;64571;47.512;19.054;2024-02-21T04:09:00;101178.72;;;7.06;82.53
75891;BME280;64571;47.512;19.054;2024-02-21T04:12:03;101201.16;;;7.09;82.94
75891;BME280;64571;47.512;19.054;2024-02-21T04:15:06;101193.44;;;7.12;83.50
75891;BME280;64571;47.512;19.054;2024-02-21T04:18:09;101194.94;;;7.02;84.27
75891;BME280;64571;47.512;19.054;2024-02-21T04:21:14;101187.44;;;6.98;84.32
75891;BME280;64571;47.512;19.054;2024-02-21T04:24:18;101195.66;;;6.93;84.86
75891;BME280;64571;47.512;19.054;2024-02-21T04:27:20;101172.84;;;6.80;85.13
75891;BME280;64571;47.512;19.054;2024-02-21T04:30:23;101175.06;;;6.83;85.21
75891;BME280;64571;47.512;19.054;2024-02-21T04:33:25;101171.41;;;6.78;85.53
75891;BME280;64571;47.512;19.054;2024-02-21T04:36:28;101189.81;;;6.89;85.34
75891;BME280;64571;47.512;19.054;2024-02-21T04:39:30;101189.22;;;6.87;85.19
75891;BME280;64571;47.512;19.054;2024-02-21T04:42:33;101190.66;;;6.90;85.65
75891;BME280;64571;47.512;19.054;2024-02-21T04:45:35;101187.88;;;6.90;85.56
75891;BME280;64571;47.512;19.054;2024-02-21T04:48:38;101188.19;;;6.93;85.25
75891;BME280;64571;47.512;19.054;2024-02-21T04:51:40;101194.59;;;6.94;85.73
75891;BME280;64571;47.512;19.054;2024-02-21T04:54:43;101169.13;;;6.75;85.51
75891;BME280;64571;47.512;19.054;2024-02-21T04:57:45;101188.06;;;6.83;85.44
75891;BME280;64571;47.512;19.054;2024-02-21T05:00:48;101194.25;;;6.90;85.40
75891;BME280;64571;47.512;19.054;2024-02-21T05:03:51;101197.19;;;6.83;85.47
75891;BME280;64571;47.512;19.054;2024-02-21T05:06:53;101195.84;;;6.86;85.67
75891;BME280;64571;47.512;19.054;2024-02-21T05:09:57;101202.97;;;6.82;85.72
75891;BME280;64571;47.512;19.054;2024-02-21T05:12:59;101189.31;;;6.75;85.71
75891;BME280;64571;47.512;19.054;2024-02-21T05:16:02;101184.31;;;6.55;86.41
75891;BME280;64571;47.512;19.054;2024-02-21T05:19:06;101213.78;;;6.67;86.25
75891;BME280;64571;47.512;19.054;2024-02-21T05:22:08;101210.59;;;6.58;86.74
75891;BME280;64571;47.512;19.054;2024-02-21T05:25:11;101199.37;;;6.48;87.15
75891;BME280;64571;47.512;19.054;2024-02-21T05:28:13;101210.59;;;6.58;86.86
75891;BME280;64571;47.512;19.054;2024-02-21T05:31:17;101199.47;;;6.53;87.13
75891;BME280;64571;47.512;19.054;2024-02-21T05:34:21;101202.75;;;6.50;87.27
75891;BME280;64571;47.512;19.054;2024-02-21T05:37:24;101181.63;;;6.44;87.36
75891;BME280;64571;47.512;19.054;2024-02-21T05:40:26;101209.03;;;6.62;87.14
75891;BME280;64571;47.512;19.054;2024-02-21T05:43:29;101202.97;;;6.65;86.78
75891;BME280;64571;47.512;19.054;2024-02-21T05:46:32;101207.41;;;6.66;86.80
75891;BME280;64571;47.512;19.054;2024-02-21T05:49:34;101207.31;;;6.61;86.55
75891;BME280;64571;47.512;19.054;2024-02-21T05:52:37;101206.69;;;6.54;86.84
75891;BME280;64571;47.512;19.054;2024-02-21T05:55:40;101202.31;;;6.58;86.75
75891;BME280;64571;47.512;19.054;2024-02-21T05:58:43;101207.84;;;6.58;87.06
75891;BME280;64571;47.512;19.054;2024-02-21T06:01:55;101212.28;;;6.59;86.90
75891;BME280;64571;47.512;19.054;2024-02-21T06:04:58;101219.19;;;6.62;86.79
75891;BME280;64571;47.512;19.054;2024-02-21T06:08:01;101213.03;;;6.71;86.54
75891;BME280;64571;47.512;19.054;2024-02-21T06:11:04;101214.16;;;6.75;85.92
75891;BME280;64571;47.512;19.054;2024-02-21T06:14:06;101198.63;;;6.69;86.05
75891;BME280;64571;47.512;19.054;2024-02-21T06:17:09;101207.16;;;6.84;85.73
75891;BME280;64571;47.512;19.054;2024-02-21T06:20:12;101197.84;;;6.91;85.18
75891;BME280;64571;47.512;19.054;2024-02-21T06:23:17;101219.41;;;7.10;84.49
75891;BME280;64571;47.512;19.054;2024-02-21T06:26:19;101212.91;;;7.00;85.05
75891;BME280;64571;47.512;19.054;2024-02-21T06:29:22;101215.94;;;6.98;85.06
75891;BME280;64571;47.512;19.054;2024-02-21T06:32:25;101209.31;;;6.99;84.99
75891;BME280;64571;47.512;19.054;2024-02-21T06:35:27;101209.87;;;7.01;84.83
75891;BME280;64571;47.512;19.054;2024-02-21T06:38:30;101202.28;;;6.92;84.39
75891;BME280;64571;47.512;19.054;2024-02-21T06:41:33;101202.69;;;7.00;84.43
75891;BME280;64571;47.512;19.054;2024-02-21T06:44:36;101206.41;;;7.11;83.30
75891;BME280;64571;47.512;19.054;2024-02-21T06:47:43;101208.66;;;7.14;82.67
75891;BME280;64571;47.512;19.054;2024-02-21T06:50:46;101233.59;;;7.36;82.34
75891;BME280;64571;47.512;19.054;2024-02-21T06:53:49;101228.62;;;7.38;81.93
75891;BME280;64571;47.512;19.054;2024-02-21T06:56:51;101224.56;;;7.46;81.22
75891;BME280;64571;47.512;19.054;2024-02-21T06:59:54;101230.81;;;7.58;81.15
75891;BME280;64571;47.512;19.054;2024-02-21T07:02:57;101207.53;;;7.54;80.27
75891;BME280;64571;47.512;19.054;2024-02-21T07:06:01;101228.22;;;7.73;79.77
75891;BME280;64571;47.512;19.054;2024-02-21T07:09:04;101201.41;;;7.74;78.37
75891;BME280;64571;47.512;19.054;2024-02-21T07:12:06;101222.41;;;7.97;77.96
75891;BME280;64571;47.512;19.054;2024-02-21T07:15:09;101221.34;;;7.98;77.54
75891;BME280;64571;47.512;19.054;2024-02-21T07:18:12;101223.37;;;8.07;76.91
75891;BME280;64571;47.512;19.054;2024-02-21T07:21:14;101247.09;;;8.25;76.56
75891;BME280;64571;47.512;19.054;2024-02-21T07:24:19;101242.97;;;8.33;75.99
75891;BME280;64571;47.512;19.054;2024-02-21T07:27:22;101235.97;;;8.47;75.60
75891;BME280;64571;47.512;19.054;2024-02-21T07:30:24;101236.09;;;8.35;74.86
75891;BME280;64571;47.512;19.054;2024-02-21T07:33:27;101262.38;;;8.60;74.90
75891;BME280;64571;47.512;19.054;2024-02-21T07:36:30;101255.38;;;8.47;75.09
75891;BME280;64571;47.512;19.054;2024-02-21T07:39:36;101267.22;;;8.43;75.92
75891;BME280;64571;47.512;19.054;2024-02-21T07:42:40;101258.88;;;8.70;75.11
75891;BME280;64571;47.512;19.054;2024-02-21T07:45:42;101262.91;;;8.89;75.03
75891;BME280;64571;47.512;19.054;2024-02-21T07:48:45;101276.06;;;9.09;74.29
75891;BME280;64571;47.512;19.054;2024-02-21T07:51:49;101262.97;;;8.99;73.53
75891;BME280;64571;47.512;19.054;2024-02-21T07:54:51;101272.25;;;9.15;73.14
75891;BME280;64571;47.512;19.054;2024-02-21T07:57:54;101273.50;;;9.39;72.78
75891;BME280;64571;47.512;19.054;2024-02-21T08:00:57;101277.13;;;9.45;72.20
75891;BME280;64571;47.512;19.054;2024-02-21T08:04:00;101272.25;;;9.62;71.94
75891;BME280;64571;47.512;19.054;2024-02-21T08:07:04;101263.72;;;9.79;71.38
75891;BME280;64571;47.512;19.054;2024-02-21T08:10:07;101252.62;;;9.84;70.83
75891;BME280;64571;47.512;19.054;2024-02-21T08:13:10;101277.72;;;10.10;69.97
75891;BME280;64571;47.512;19.054;2024-02-21T08:16:13;101273.81;;;10.11;69.87
75891;BME280;64571;47.512;19.054;2024-02-21T08:19:15;101248.22;;;9.94;69.56
75891;BME280;64571;47.512;19.054;2024-02-21T08:22:18;101261.34;;;10.24;69.42
75891;BME280;64571;47.512;19.054;2024-02-21T08:25:21;101251.13;;;10.34;69.21
75891;BME280;64571;47.512;19.054;2024-02-21T08:28:24;101257.78;;;10.44;68.95
75891;BME280;64571;47.512;19.054;2024-02-21T08:31:29;101258.09;;;10.57;68.41
75891;BME280;64571;47.512;19.054;2024-02-21T08:34:35;101251.16;;;10.55;68.48
75891;BME280;64571;47.512;19.054;2024-02-21T08:37:37;101250.31;;;10.85;67.59
75891;BME280;64571;47.512;19.054;2024-02-21T08:40:40;101237.00;;;10.72;66.72
75891;BME280;64571;47.512;19.054;2024-02-21T08:43:43;101256.72;;;10.85;66.76
75891;BME280;64571;47.512;19.054;2024-02-21T08:46:45;101241.13;;;10.79;66.53
75891;BME280;64571;47.512;19.054;2024-02-21T08:49:49;101251.13;;;11.06;65.60
75891;BME280;64571;47.512;19.054;2024-02-21T08:52:53;101250.31;;;10.95;65.48
75891;BME280;64571;47.512;19.054;2024-02-21T08:55:55;101235.31;;;10.86;65.21
75891;BME280;64571;47.512;19.054;2024-02-21T08:58:58;101246.66;;;11.10;65.23
75891;BME280;64571;47.512;19.054;2024-02-21T09:02:01;101249.94;;;11.43;64.84
75891;BME280;64571;47.512;19.054;2024-02-21T09:05:05;101251.34;;;11.40;64.46
75891;BME280;64571;47.512;19.054;2024-02-21T09:08:08;101251.06;;;11.36;64.70
75891;BME280;64571;47.512;19.054;2024-02-21T09:11:11;101223.78;;;11.33;64.38
75891;BME280;64571;47.512;19.054;2024-02-21T09:14:14;101247.22;;;11.07;65.01
75891;BME280;64571;47.512;19.054;2024-02-21T09:17:16;101232.81;;;10.74;65.08
75891;BME280;64571;47.512;19.054;2024-02-21T09:20:22;101239.41;;;11.24;63.72
75891;BME280;64571;47.512;19.054;2024-02-21T09:23:25;101239.47;;;10.99;63.42
75891;BME280;64571;47.512;19.054;2024-02-21T09:26:28;101238.31;;;11.15;63.18
75891;BME280;64571;47.512;19.054;2024-02-21T09:29:31;101219.69;;;11.10;63.18
75891;BME280;64571;47.512;19.054;2024-02-21T09:32:35;101233.59;;;11.10;62.83
75891;BME280;64571;47.512;19.054;2024-02-21T09:35:38;101241.66;;;11.07;62.67
75891;BME280;64571;47.512;19.054;2024-02-21T09:38:41;101217.72;;;11.16;62.44
75891;BME280;64571;47.512;19.054;2024-02-21T09:41:54;101214.38;;;11.19;62.68
75891;BME280;64571;47.512;19.054;2024-02-21T09:44:58;101237.19;;;11.21;63.32
75891;BME280;64571;47.512;19.054;2024-02-21T09:51:16;101241.94;;;11.05;63.85
75891;BME280;64571;47.512;19.054;2024-02-21T09:54:20;101233.91;;;10.99;63.77
75891;BME280;64571;47.512;19.054;2024-02-21T09:57:24;101240.81;;;11.11;62.07
75891;BME280;64571;47.512;19.054;2024-02-21T10:00:27;101234.41;;;11.21;62.03
75891;BME280;64571;47.512;19.054;2024-02-21T10:03:30;101223.87;;;10.93;62.28
75891;BME280;64571;47.512;19.054;2024-02-21T10:06:34;101236.13;;;10.97;62.71
75891;BME280;64571;47.512;19.054;2024-02-21T10:09:37;101234.66;;;11.30;61.77
75891;BME280;64571;47.512;19.054;2024-02-21T10:12:52;101203.69;;;11.52;60.97
75891;BME280;64571;47.512;19.054;2024-02-21T10:16:07;101221.72;;;12.24;59.40
75891;BME280;64571;47.512;19.054;2024-02-21T10:19:17;101213.75;;;12.47;58.84
75891;BME280;64571;47.512;19.054;2024-02-21T10:22:20;101214.06;;;12.74;57.52
75891;BME280;64571;47.512;19.054;2024-02-21T10:25:23;101218.59;;;13.28;56.24
75891;BME280;64571;47.512;19.054;2024-02-21T10:28:26;101219.09;;;13.06;55.83
75891;BME280;64571;47.512;19.054;2024-02-21T10:31:28;101188.41;;;13.06;55.90
75891;BME280;64571;47.512;19.054;2024-02-21T10:34:31;101190.69;;;12.36;57.37
75891;BME280;64571;47.512;19.054;2024-02-21T10:37:34;101207.31;;;12.12;57.81
75891;BME280;64571;47.512;19.054;2024-02-21T10:40:37;101193.88;;;12.19;57.58
75891;BME280;64571;47.512;19.054;2024-02-21T10:43:40;101171.72;;;12.04;58.02
75891;BME280;64571;47.512;19.054;2024-02-21T10:46:44;101191.69;;;12.16;58.30
75891;BME280;64571;47.512;19.054;2024-02-21T10:49:57;101179.50;;;12.02;57.76
75891;BME280;64571;47.512;19.054;2024-02-21T10:53:13;101179.09;;;11.84;58.58
75891;BME280;64571;47.512;19.054;2024-02-21T10:56:30;101156.81;;;11.84;58.50
75891;BME280;64571;47.512;19.054;2024-02-21T10:59:40;101155.37;;;11.87;58.25
75891;BME280;64571;47.512;19.054;2024-02-21T11:02:46;101146.00;;;11.68;58.55
75891;BME280;64571;47.512;19.054;2024-02-21T11:05:49;101152.34;;;12.23;57.43
75891;BME280;64571;47.512;19.054;2024-02-21T11:09:10;101154.81;;;12.58;55.92
75891;BME280;64571;47.512;19.054;2024-02-21T11:12:20;101140.81;;;12.34;55.53
75891;BME280;64571;47.512;19.054;2024-02-21T11:15:26;101123.19;;;12.97;54.22
75891;BME280;64571;47.512;19.054;2024-02-21T11:18:29;101129.59;;;12.98;54.00
75891;BME280;64571;47.512;19.054;2024-02-21T11:21:33;101105.25;;;12.79;54.08
75891;BME280;64571;47.512;19.054;2024-02-21T11:24:37;101126.16;;;13.06;53.96
75891;BME280;64571;47.512;19.054;2024-02-21T11:27:45;101108.94;;;12.99;54.56
75891;BME280;64571;47.512;19.054;2024-02-21T11:30:49;101103.38;;;13.23;54.15
75891;BME280;64571;47.512;19.054;2024-02-21T11:33:53;101114.25;;;13.19;53.46
75891;BME280;64571;47.512;19.054;2024-02-21T11:36:56;101099.19;;;12.72;53.70
75891;BME280;64571;47.512;19.054;2024-02-21T11:40:00;101109.13;;;12.54;53.28
75891;BME280;64571;47.512;19.054;2024-02-21T11:43:03;101088.66;;;12.40;53.64
75891;BME280;64571;47.512;19.054;2024-02-21T11:46:06;101102.03;;;12.67;53.60
75891;BME280;64571;47.512;19.054;2024-02-21T11:49:09;101109.38;;;13.11;52.35
75891;BME280;64571;47.512;19.054;2024-02-21T11:52:12;101102.94;;;13.34;51.55
75891;BME280;64571;47.512;19.054;2024-02-21T11:55:18;101098.06;;;13.21;51.62
75891;BME280;64571;47.512;19.054;2024-02-21T11:58:20;101087.63;;;12.84;52.05
75891;BME280;64571;47.512;19.054;2024-02-21T12:01:24;101090.50;;;12.50;52.67
75891;BME280;64571;47.512;19.054;2024-02-21T12:04:27;101082.44;;;12.48;52.89
75891;BME280;64571;47.512;19.054;2024-02-21T12:07:31;101069.22;;;12.59;52.75
75891;BME280;64571;47.512;19.054;2024-02-21T12:10:35;101082.44;;;13.20;52.01
75891;BME280;64571;47.512;19.054;2024-02-21T12:13:38;101074.37;;;12.71;52.09
75891;BME280;64571;47.512;19.054;2024-02-21T12:16:41;101070.22;;;13.16;51.51
75891;BME280;64571;47.512;19.054;2024-02-21T12:19:44;101053.22;;;13.36;50.99
75891;BME280;64571;47.512;19.054;2024-02-21T12:22:49;101066.31;;;13.60;50.42
75891;BME280;64571;47.512;19.054;2024-02-21T12:25:52;101063.34;;;13.70;49.78
75891;BME280;64571;47.512;19.054;2024-02-21T12:28:57;101065.75;;;13.39;49.81
75891;BME280;64571;47.512;19.054;2024-02-21T12:31:59;101057.31;;;13.44;49.86
75891;BME280;64571;47.512;19.054;2024-02-21T12:35:03;101063.03;;;13.72;49.89
75891;BME280;64571;47.512;19.054;2024-02-21T12:38:06;101062.81;;;13.30;50.27
75891;BME280;64571;47.512;19.054;2024-02-21T12:41:09;101062.44;;;13.13;50.78
75891;BME280;64571;47.512;19.054;2024-02-21T12:44:12;101048.75;;;12.92;51.05
75891;BME280;64571;47.512;19.054;2024-02-21T12:47:15;101038.91;;;12.76;50.79
75891;BME280;64571;47.512;19.054;2024-02-21T12:50:17;101047.41;;;12.66;51.39
75891;BME280;64571;47.512;19.054;2024-02-21T12:53:22;101033.84;;;12.54;51.77
75891;BME280;64571;47.512;19.054;2024-02-21T12:56:34;101048.16;;;12.48;52.18
75891;BME280;64571;47.512;19.054;2024-02-21T12:59:37;101040.06;;;12.46;52.45
75891;BME280;64571;47.512;19.054;2024-02-21T13:02:40;101028.38;;;12.44;52.67
75891;BME280;64571;47.512;19.054;2024-02-21T13:05:43;101041.00;;;12.36;52.92
75891;BME280;64571;47.512;19.054;2024-02-21T13:08:45;101016.66;;;12.18;53.27
75891;BME280;64571;47.512;19.054;2024-02-21T13:11:50;101026.63;;;12.24;53.33
75891;BME280;64571;47.512;19.054;2024-02-21T13:14:54;101010.84;;;12.14;53.64
75891;BME280;64571;47.512;19.054;2024-02-21T13:17:56;100997.84;;;12.34;53.35
75891;BME280;64571;47.512;19.054;2024-02-21T13:21:00;101011.53;;;12.54;53.22
75891;BME280;64571;47.512;19.054;2024-02-21T13:24:03;101012.47;;;12.92;52.38
75891;BME280;64571;47.512;19.054;2024-02-21T13:27:06;100985.91;;;12.76;51.25
75891;BME280;64571;47.512;19.054;2024-02-21T13:30:09;101008.09;;;12.86;51.67
75891;BME280;64571;47.512;19.054;2024-02-21T13:33:13;101004.88;;;12.74;50.78
75891;BME280;64571;47.512;19.054;2024-02-21T13:36:16;100997.84;;;12.58;50.85
75891;BME280;64571;47.512;19.054;2024-02-21T13:39:18;100987.56;;;12.77;50.38
75891;BME280;64571;47.512;19.054;2024-02-21T13:42:21;100965.41;;;13.05;49.60
75891;BME280;64571;47.512;19.054;2024-02-21T13:45:24;100979.44;;;13.18;48.53
75891;BME280;64571;47.512;19.054;2024-02-21T13:48:27;100970.72;;;13.06;48.99
75891;BME280;64571;47.512;19.054;2024-02-21T13:51:31;100986.31;;;12.88;48.65
75891;BME280;64571;47.512;19.054;2024-02-21T13:54:34;100964.38;;;12.58;48.85
75891;BME280;64571;47.512;19.054;2024-02-21T13:57:37;100972.81;;;12.53;49.28
75891;BME280;64571;47.512;19.054;2024-02-21T14:00:40;100979.44;;;12.33;50.02
75891;BME280;64571;47.512;19.054;2024-02-21T14:03:42;100971.50;;;12.21;50.69
75891;BME280;64571;47.512;19.054;2024-02-21T14:06:45;100976.25;;;12.21;51.05
75891;BME280;64571;47.512;19.054;2024-02-21T14:09:48;100951.78;;;12.12;50.86
75891;BME280;64571;47.512;19.054;2024-02-21T14:12:51;100973.09;;;12.27;50.75
75891;BME280;64571;47.512;19.054;2024-02-21T14:15:53;100971.72;;;12.25;50.65
75891;BME280;64571;47.512;19.054;2024-02-21T14:18:56;100975.38;;;12.20;50.89
75891;BME280;64571;47.512;19.054;2024-02-21T14:21:59;100965.66;;;12.18;50.86
75891;BME280;64571;47.512;19.054;2024-02-21T14:25:01;100963.81;;;12.08;50.86
75891;BME280;64571;47.512;19.054;2024-02-21T14:28:05;100948.25;;;12.07;50.85
75891;BME280;64571;47.512;19.054;2024-02-21T14:31:08;100947.94;;;12.08;50.76
75891;BME280;64571;47.512;19.054;2024-02-21T14:34:11;100954.97;;;12.25;50.26
75891;BME280;64571;47.512;19.054;2024-02-21T14:37:15;100944.69;;;12.25;50.35
75891;BME280;64571;47.512;19.054;2024-02-21T14:40:18;100960.72;;;12.38;50.32
75891;BME280;64571;47.512;19.054;2024-02-21T14:43:23;100965.09;;;12.45;50.38
75891;BME280;64571;47.512;19.054;2024-02-21T14:46:26;100956.91;;;12.29;50.30
75891;BME280;64571;47.512;19.054;2024-02-21T14:49:30;100954.22;;;12.19;50.45
75891;BME280;64571;47.512;19.054;2024-02-21T14:52:33;100950.50;;;12.29;50.53
75891;BME280;64571;47.512;19.054;2024-02-21T14:55:37;100948.84;;;12.28;50.66
75891;BME280;64571;47.512;19.054;2024-02-21T14:58:41;100945.16;;;12.32;50.36
75891;BME280;64571;47.512;19.054;2024-02-21T15:01:44;100950.97;;;12.36;50.45
75891;BME280;64571;47.512;19.054;2024-02-21T15:04:47;100938.69;;;12.13;50.07
75891;BME280;64571;47.512;19.054;2024-02-21T15:07:50;100942.50;;;12.22;50.08
75891;BME280;64571;47.512;19.054;2024-02-21T15:10:54;100916.91;;;12.15;50.12
75891;BME280;64571;47.512;19.054;2024-02-21T15:13:57;100927.28;;;12.33;50.05
75891;BME280;64571;47.512;19.054;2024-02-21T15:17:00;100931.16;;;12.37;50.33
75891;BME280;64571;47.512;19.054;2024-02-21T15:20:03;100931.94;;;12.19;50.10
75891;BME280;64571;47.512;19.054;2024-02-21T15:23:07;100923.50;;;12.24;50.22
75891;BME280;64571;47.512;19.054;2024-02-21T15:26:12;100915.75;;;12.21;50.11
75891;BME280;64571;47.512;19.054;2024-02-21T15:29:21;100914.38;;;12.19;50.38
75891;BME280;64571;47.512;19.054;2024-02-21T15:32:25;100933.81;;;12.24;50.43
75891;BME280;64571;47.512;19.054;2024-02-21T15:35:29;100931.69;;;12.15;50.63
75891;BME280;64571;47.512;19.054;2024-02-21T15:38:31;100909.38;;;11.91;50.63
75891;BME280;64571;47.512;19.054;2024-02-21T15:41:34;100908.31;;;11.87;50.80
75891;BME280;64571;47.512;19.054;2024-02-21T15:44:37;100901.94;;;11.82;50.87
75891;BME280;64571;47.512;19.054;2024-02-21T15:47:41;100907.25;;;11.78;50.89
75891;BME280;64571;47.512;19.054;2024-02-21T15:50:43;100927.84;;;11.82;51.26
75891;BME280;64571;47.512;19.054;2024-02-21T15:53:48;100919.19;;;11.84;51.62
75891;BME280;64571;47.512;19.054;2024-02-21T15:56:50;100905.34;;;11.74;50.88